createdAt,value
2019-05-10T00:00:09.302Z,9.75
2019-05-10T00:02:56.594Z,9.69
2019-05-10T00:05:42.945Z,9.65
2019-05-10T00:08:29.613Z,9.60
2019-05-10T00:11:06.171Z,9.55
2019-05-10T00:13:51.227Z,9.53
2019-05-10T00:16:19.703Z,9.54
2019-05-10T00:18:48.201Z,9.56
2019-05-10T00:21:16.596Z,9.57
2019-05-10T00:23:45.008Z,9.57
2019-05-10T00:26:13.486Z,9.62
2019-05-10T00:28:41.911Z,9.56
2019-05-10T00:31:10.320Z,9.63
2019-05-10T00:33:38.730Z,9.57
2019-05-10T00:36:07.157Z,9.56
2019-05-10T00:38:35.631Z,9.57
2019-05-10T00:41:04.035Z,9.61
2019-05-10T00:43:32.435Z,9.68
2019-05-10T00:46:00.872Z,9.68
2019-05-10T00:48:29.279Z,9.75
2019-05-10T00:50:57.728Z,9.75
2019-05-10T00:53:26.259Z,9.78
2019-05-10T00:55:54.632Z,9.83
2019-05-10T00:58:23.125Z,9.90
2019-05-10T01:00:51.569Z,9.92
2019-05-10T01:03:20.047Z,9.79
2019-05-10T01:05:48.437Z,9.84
2019-05-10T01:08:16.893Z,9.85
2019-05-10T01:10:45.386Z,9.78
2019-05-10T01:13:13.790Z,9.84
2019-05-10T01:15:42.483Z,9.89
2019-05-10T01:18:10.957Z,9.80
2019-05-10T01:20:39.379Z,9.76
2019-05-10T01:23:07.846Z,9.72
2019-05-10T01:25:36.257Z,9.64
2019-05-10T01:28:04.678Z,9.69
2019-05-10T01:30:33.143Z,9.75
2019-05-10T01:33:01.634Z,9.78
2019-05-10T01:35:30.209Z,9.75
2019-05-10T01:37:58.628Z,9.70
2019-05-10T01:40:27.061Z,9.66
2019-05-10T01:42:55.459Z,9.63
2019-05-10T01:45:23.864Z,9.71
2019-05-10T01:47:52.310Z,9.68
2019-05-10T01:50:20.727Z,9.62
2019-05-10T01:52:49.196Z,9.63
2019-05-10T01:55:17.549Z,9.65
2019-05-10T01:57:45.950Z,9.71
2019-05-10T02:00:15.017Z,9.58
2019-05-10T02:02:43.426Z,9.67
2019-05-10T02:05:12.192Z,9.62
2019-05-10T02:07:40.604Z,9.53
2019-05-10T02:10:10.398Z,9.57
2019-05-10T02:12:39.398Z,9.60
2019-05-10T02:15:09.541Z,9.61
2019-05-10T02:17:37.961Z,9.52
2019-05-10T02:20:06.920Z,9.51
2019-05-10T02:22:35.378Z,9.55
2019-05-10T02:25:04.234Z,9.51
2019-05-10T02:27:32.629Z,9.54
2019-05-10T02:30:01.020Z,9.54
2019-05-10T02:32:29.452Z,9.46
2019-05-10T02:34:57.841Z,9.49
2019-05-10T02:37:26.253Z,9.42
2019-05-10T02:39:54.668Z,9.44
2019-05-10T02:42:23.201Z,9.46
2019-05-10T02:44:51.582Z,9.50
2019-05-10T02:47:20.022Z,9.47
2019-05-10T02:49:48.462Z,9.35
2019-05-10T02:52:17.163Z,9.24
2019-05-10T02:54:45.730Z,8.91
2019-05-10T02:57:15.018Z,8.96
2019-05-10T02:59:44.311Z,8.92
2019-05-10T03:02:14.223Z,8.89
2019-05-10T03:04:45.890Z,8.94
2019-05-10T03:07:17.651Z,8.92
2019-05-10T03:09:50.367Z,8.89
2019-05-10T03:12:24.610Z,8.93
2019-05-10T03:14:55.621Z,8.97
2019-05-10T03:17:24.709Z,9.14
2019-05-10T03:19:54.948Z,9.06
2019-05-10T03:22:25.521Z,8.97
2019-05-10T03:24:54.154Z,9.03
2019-05-10T03:27:22.760Z,8.93
2019-05-10T03:29:51.758Z,8.99
2019-05-10T03:32:20.474Z,8.84
2019-05-10T03:34:49.035Z,8.93
2019-05-10T03:37:17.608Z,9.15
2019-05-10T03:39:46.266Z,9.15
2019-05-10T03:42:14.671Z,9.10
2019-05-10T03:44:43.253Z,9.08
2019-05-10T03:47:11.740Z,9.04
2019-05-10T03:49:40.117Z,9.08
2019-05-10T03:52:08.527Z,9.08
2019-05-10T03:54:36.918Z,9.01
2019-05-10T03:57:14.441Z,9.11
2019-05-10T03:59:35.457Z,9.07
2019-05-10T04:02:03.969Z,9.10
2019-05-10T04:04:32.390Z,9.14
2019-05-10T04:07:00.778Z,9.19
2019-05-10T04:09:29.175Z,9.17
2019-05-10T04:11:57.598Z,9.01
2019-05-10T04:14:25.996Z,9.14
2019-05-10T04:16:54.422Z,9.04
2019-05-10T04:19:22.817Z,9.08
2019-05-10T04:21:51.227Z,9.12
2019-05-10T04:24:19.685Z,9.06
2019-05-10T04:26:48.149Z,8.96
2019-05-10T04:29:16.577Z,8.98
2019-05-10T04:31:44.993Z,8.99
2019-05-10T04:34:13.425Z,8.98
2019-05-10T04:36:41.856Z,9.01
2019-05-10T04:39:10.479Z,9.00
2019-05-10T04:41:38.903Z,9.00
2019-05-10T04:44:07.433Z,9.04
2019-05-10T04:46:35.904Z,9.04
2019-05-10T04:49:04.352Z,8.96
2019-05-10T04:51:32.754Z,8.98
2019-05-10T04:54:01.160Z,9.03
2019-05-10T04:56:29.576Z,9.10
2019-05-10T04:58:57.987Z,9.21
2019-05-10T05:01:26.409Z,9.21
2019-05-10T05:03:54.789Z,9.20
2019-05-10T05:06:23.199Z,9.23
2019-05-10T05:08:51.732Z,9.23
2019-05-10T05:11:20.195Z,9.22
2019-05-10T05:13:48.593Z,9.23
2019-05-10T05:16:17.030Z,9.17
2019-05-10T05:18:45.529Z,9.16
2019-05-10T05:21:13.959Z,9.12
2019-05-10T05:23:42.390Z,9.16
2019-05-10T05:26:10.901Z,9.09
2019-05-10T05:28:39.347Z,9.15
2019-05-10T05:31:07.947Z,9.18
2019-05-10T05:33:36.428Z,9.25
2019-05-10T05:36:04.954Z,9.29
2019-05-10T05:38:33.395Z,9.31
2019-05-10T05:41:01.808Z,9.34
2019-05-10T05:43:30.279Z,9.34
2019-05-10T05:45:58.696Z,9.26
2019-05-10T05:48:39.575Z,9.32
2019-05-10T05:50:57.284Z,9.30
2019-05-10T05:53:25.728Z,9.28
2019-05-10T05:55:54.119Z,9.38
2019-05-10T05:58:27.219Z,9.35
2019-05-10T06:00:52.931Z,9.44
2019-05-10T06:03:27.729Z,9.47
2019-05-10T06:05:51.498Z,9.48
2019-05-10T06:08:24.932Z,9.44
2019-05-10T06:10:57.676Z,9.45
2019-05-10T06:13:23.353Z,9.45
2019-05-10T06:15:50.428Z,9.40
2019-05-10T06:18:18.839Z,9.51
2019-05-10T06:20:47.295Z,9.57
2019-05-10T06:23:15.720Z,9.61
2019-05-10T06:25:44.133Z,9.62
2019-05-10T06:28:25.625Z,9.71
2019-05-10T06:30:42.700Z,9.63
2019-05-10T06:33:13.250Z,9.64
2019-05-10T06:35:41.518Z,9.64
2019-05-10T06:38:09.932Z,9.69
2019-05-10T06:40:46.550Z,9.58
2019-05-10T06:43:13.616Z,9.59
2019-05-10T06:45:38.665Z,9.64
2019-05-10T06:48:07.094Z,9.66
2019-05-10T06:50:35.528Z,9.69
2019-05-10T06:53:07.951Z,9.69
2019-05-10T06:55:34.099Z,9.61
2019-05-10T06:58:02.531Z,9.75
2019-05-10T07:00:30.963Z,9.82
2019-05-10T07:02:59.400Z,9.80
2019-05-10T07:05:27.899Z,9.81
2019-05-10T07:08:00.584Z,9.79
2019-05-10T07:10:26.495Z,9.82
2019-05-10T07:12:56.939Z,9.90
2019-05-10T07:15:25.071Z,9.88
2019-05-10T07:17:53.526Z,9.95
2019-05-10T07:20:23.815Z,9.87
2019-05-10T07:22:52.066Z,9.95
2019-05-10T07:25:20.481Z,9.95
2019-05-10T07:27:50.419Z,9.88
2019-05-10T07:30:24.800Z,9.79
2019-05-10T07:32:54.676Z,9.80
2019-05-10T07:35:23.350Z,9.69
2019-05-10T07:37:53.103Z,9.83
2019-05-10T07:40:21.576Z,9.78
2019-05-10T07:42:50.008Z,9.79
2019-05-10T07:45:24.942Z,9.78
2019-05-10T07:47:48.605Z,9.78
2019-05-10T07:50:17.286Z,9.87
2019-05-10T07:52:45.976Z,9.83
2019-05-10T07:55:18.529Z,9.87
2019-05-10T07:57:44.548Z,9.77
2019-05-10T08:00:13.219Z,9.74
2019-05-10T08:02:44.372Z,9.77
2019-05-10T08:05:14.006Z,9.62
2019-05-10T08:07:42.777Z,9.61
2019-05-10T08:10:12.382Z,9.56
2019-05-10T08:12:45.525Z,9.55
2019-05-10T08:15:12.411Z,9.62
2019-05-10T08:17:45.381Z,9.62
2019-05-10T08:20:22.101Z,9.65
2019-05-10T08:22:45.923Z,9.70
2019-05-10T08:25:15.270Z,9.80
2019-05-10T08:27:50.269Z,9.68
2019-05-10T08:30:25.638Z,9.76
2019-05-10T08:32:43.459Z,9.80
2019-05-10T08:35:16.959Z,9.78
2019-05-10T08:37:43.340Z,9.69
2019-05-10T08:40:12.982Z,9.70
2019-05-10T08:42:48.281Z,9.68
2019-05-10T08:45:13.019Z,9.73
2019-05-10T08:47:42.611Z,9.79
2019-05-10T08:50:26.341Z,9.85
2019-05-10T08:52:42.670Z,9.81
2019-05-10T08:55:12.319Z,9.81
2019-05-10T08:57:44.471Z,9.80
2019-05-10T09:00:13.066Z,9.67
2019-05-10T09:02:42.671Z,9.74
2019-05-10T09:05:12.509Z,9.76
2019-05-10T09:07:42.909Z,9.84
2019-05-10T09:10:12.889Z,9.89
2019-05-10T09:12:50.612Z,9.85
2019-05-10T09:15:13.518Z,9.96
2019-05-10T09:17:43.038Z,9.88
2019-05-10T09:20:20.778Z,9.82
2019-05-10T09:22:42.767Z,9.89
2019-05-10T09:25:12.922Z,9.88
2019-05-10T09:27:43.197Z,9.96
2019-05-10T09:30:18.303Z,10.04
2019-05-10T09:32:44.018Z,10.04
2019-05-10T09:35:13.128Z,10.16
2019-05-10T09:37:42.185Z,10.15
2019-05-10T09:40:13.323Z,10.23
2019-05-10T09:42:43.708Z,10.34
2019-05-10T09:45:12.825Z,10.31
2019-05-10T09:47:43.360Z,10.32
2019-05-10T09:50:12.760Z,10.36
2019-05-10T09:52:41.300Z,10.37
2019-05-10T09:55:14.578Z,10.43
2019-05-10T09:57:40.200Z,10.42
2019-05-10T10:00:10.571Z,10.49
2019-05-10T10:02:40.668Z,10.57
2019-05-10T10:05:09.502Z,10.63
2019-05-10T10:07:37.939Z,10.73
2019-05-10T10:10:07.491Z,10.86
2019-05-10T10:12:37.342Z,10.86
2019-05-10T10:15:09.173Z,10.86
2019-05-10T10:17:41.940Z,10.88
2019-05-10T10:20:08.366Z,10.96
2019-05-10T10:22:38.071Z,11.01
2019-05-10T10:25:07.597Z,11.13
2019-05-10T10:27:39.515Z,11.30
2019-05-10T10:30:12.857Z,11.37
2019-05-10T10:32:38.627Z,11.54
2019-05-10T10:35:08.174Z,11.44
2019-05-10T10:37:37.952Z,11.52
2019-05-10T10:40:08.747Z,11.53
2019-05-10T10:42:38.245Z,11.53
2019-05-10T10:45:10.074Z,11.37
2019-05-10T10:47:38.890Z,11.21
2019-05-10T10:50:13.288Z,11.24
2019-05-10T10:52:38.443Z,11.44
2019-05-10T10:55:10.977Z,11.66
2019-05-10T10:57:37.761Z,11.71
2019-05-10T11:00:11.669Z,11.78
2019-05-10T11:02:41.680Z,11.90
2019-05-10T11:05:10.658Z,11.78
2019-05-10T11:07:44.422Z,11.88
2019-05-10T11:12:43.805Z,11.91
2019-05-10T11:15:16.552Z,11.88
2019-05-10T11:17:42.514Z,11.78
2019-05-10T11:20:11.626Z,11.67
2019-05-10T11:22:42.018Z,11.49
2019-05-10T11:25:12.858Z,11.62
2019-05-10T11:27:41.721Z,11.20
2019-05-10T11:30:12.189Z,11.58
2019-05-10T11:32:41.831Z,11.66
2019-05-10T11:35:16.892Z,11.64
2019-05-10T11:37:45.375Z,11.85
2019-05-10T11:40:12.499Z,11.84
2019-05-10T11:42:43.746Z,11.79
2019-05-10T11:45:12.711Z,11.86
2019-05-10T11:47:41.237Z,12.05
2019-05-10T11:50:26.562Z,11.83
2019-05-10T11:52:41.691Z,12.34
2019-05-10T11:55:11.419Z,12.83
2019-05-10T11:57:43.842Z,13.05
2019-05-10T12:03:01.054Z,12.84
2019-05-10T12:05:20.059Z,12.28
2019-05-10T12:07:45.721Z,13.05
2019-05-10T12:13:00.473Z,12.75
2019-05-10T12:15:14.085Z,13.35
2019-05-10T12:17:46.176Z,13.76
2019-05-10T12:20:17.013Z,13.82
2019-05-10T12:22:47.503Z,13.82
2019-05-10T12:25:36.173Z,14.58
2019-05-10T12:26:20.112Z,13.09
2019-05-10T12:26:31.062Z,12.73
2019-05-10T12:27:48.905Z,14.73
2019-05-10T12:30:16.096Z,15.45
2019-05-10T12:32:55.553Z,15.56
2019-05-10T12:35:15.067Z,15.70
2019-05-10T12:37:46.153Z,15.73
2019-05-10T12:40:15.376Z,16.08
2019-05-10T12:42:46.932Z,16.37
2019-05-10T12:45:14.947Z,16.27
2019-05-10T12:47:43.435Z,16.33
2019-05-10T12:50:12.814Z,16.38
2019-05-10T12:52:43.302Z,16.20
2019-05-10T12:55:11.683Z,15.50
2019-05-10T12:57:43.194Z,16.28
2019-05-10T13:00:13.176Z,16.50
2019-05-10T13:02:44.801Z,16.43
2019-05-10T13:05:15.373Z,16.59
2019-05-10T13:07:43.378Z,16.41
2019-05-10T13:10:12.497Z,16.68
2019-05-10T13:12:44.307Z,16.93
2019-05-10T13:15:12.004Z,16.98
2019-05-10T13:17:44.285Z,17.35
2019-05-10T13:20:11.726Z,17.38
2019-05-10T13:22:40.137Z,17.15
2019-05-10T13:25:09.104Z,17.82
2019-05-10T13:27:37.940Z,17.93
2019-05-10T13:30:07.386Z,18.06
2019-05-10T13:32:35.812Z,17.63
2019-05-10T13:35:05.659Z,17.59
2019-05-10T13:37:34.080Z,17.98
2019-05-10T13:40:05.626Z,17.76
2019-05-10T13:42:36.611Z,18.07
2019-05-10T13:45:02.866Z,18.23
2019-05-10T13:47:31.298Z,18.08
2019-05-10T13:49:59.787Z,18.39
2019-05-10T13:52:29.741Z,18.24
2019-05-10T13:54:58.394Z,18.64
2019-05-10T13:57:26.818Z,18.71
2019-05-10T13:59:57.279Z,18.40
2019-05-10T14:02:32.441Z,18.60
2019-05-10T14:04:55.569Z,18.44
2019-05-10T14:07:24.064Z,18.45
2019-05-10T14:09:52.546Z,18.86
2019-05-10T14:12:23.472Z,18.90
2019-05-10T14:14:55.282Z,18.74
2019-05-10T14:17:21.402Z,18.60
2019-05-10T14:19:49.960Z,19.03
2019-05-10T14:22:18.418Z,18.81
2019-05-10T14:24:53.306Z,18.69
2019-05-10T14:27:17.087Z,18.35
2019-05-10T14:29:45.528Z,18.25
2019-05-10T14:32:13.995Z,18.26
2019-05-10T14:34:43.906Z,17.90
2019-05-10T14:37:14.331Z,18.26
2019-05-10T14:39:42.877Z,18.26
2019-05-10T14:42:11.291Z,18.05
2019-05-10T14:44:39.803Z,18.26
2019-05-10T14:47:11.029Z,18.52
2019-05-10T14:49:42.094Z,18.64
2019-05-10T14:52:08.705Z,19.01
2019-05-10T14:54:43.722Z,18.29
2019-05-10T14:57:07.688Z,18.77
2019-05-10T14:59:36.103Z,19.07
2019-05-10T15:02:04.843Z,18.74
2019-05-10T15:04:49.171Z,18.62
2019-05-10T15:07:08.545Z,18.68
2019-05-10T15:09:34.105Z,18.02
2019-05-10T15:12:02.686Z,18.02
2019-05-10T15:14:31.119Z,18.38
2019-05-10T15:16:59.883Z,17.98
2019-05-10T15:19:31.235Z,18.22
2019-05-10T15:21:58.420Z,18.45
2019-05-10T15:24:26.926Z,18.70
2019-05-10T15:26:55.414Z,19.03
2019-05-10T15:29:24.751Z,18.57
2019-05-10T15:31:53.257Z,18.86
2019-05-10T15:34:21.659Z,18.93
2019-05-10T15:36:50.067Z,18.74
2019-05-10T15:39:23.113Z,18.88
2019-05-10T15:41:53.612Z,18.53
2019-05-10T15:44:18.946Z,18.34
2019-05-10T15:46:47.437Z,17.80
2019-05-10T15:49:21.093Z,17.84
2019-05-10T15:51:49.099Z,17.46
2019-05-10T15:54:16.438Z,17.16
2019-05-10T15:56:45.057Z,17.30
2019-05-10T15:59:19.320Z,17.14
2019-05-10T16:01:45.610Z,16.73
2019-05-10T16:04:13.910Z,17.08
2019-05-10T16:06:42.350Z,16.68
2019-05-10T16:09:17.382Z,16.78
2019-05-10T16:11:40.963Z,17.21
2019-05-10T16:14:09.452Z,17.02
2019-05-10T16:16:39.803Z,16.45
2019-05-10T16:19:12.898Z,16.84
2019-05-10T16:21:38.283Z,16.71
2019-05-10T16:24:06.681Z,16.67
2019-05-10T16:26:35.087Z,16.59
2019-05-10T16:29:03.600Z,16.96
2019-05-10T16:31:32.008Z,16.92
2019-05-10T16:34:00.423Z,17.13
2019-05-10T16:36:30.129Z,17.14
2019-05-10T16:39:01.493Z,17.02
2019-05-10T16:41:28.906Z,17.30
2019-05-10T16:43:58.422Z,17.59
2019-05-10T16:46:27.454Z,17.52
2019-05-10T16:48:55.896Z,16.52
2019-05-10T16:51:25.184Z,16.23
2019-05-10T16:53:54.447Z,15.41
2019-05-10T16:56:22.896Z,15.40
2019-05-10T16:58:53.222Z,15.97
2019-05-10T17:01:25.143Z,16.20
2019-05-10T17:03:59.693Z,16.35
2019-05-10T17:06:21.825Z,16.21
2019-05-10T17:08:50.259Z,16.07
2019-05-10T17:11:18.675Z,16.13
2019-05-10T17:13:47.203Z,16.11
2019-05-10T17:16:18.531Z,15.61
2019-05-10T17:18:49.723Z,15.27
2019-05-10T17:21:17.136Z,14.79
2019-05-10T17:23:46.805Z,14.80
2019-05-10T17:26:16.723Z,14.75
2019-05-10T17:28:45.142Z,14.61
2019-05-10T17:31:13.596Z,14.12
2019-05-10T17:33:43.260Z,13.78
2019-05-10T17:36:14.427Z,13.61
2019-05-10T17:38:47.341Z,13.37
2019-05-10T17:41:12.629Z,13.01
2019-05-10T17:43:41.044Z,13.07
2019-05-10T17:46:12.799Z,12.67
2019-05-10T17:48:40.852Z,12.62
2019-05-10T17:51:09.905Z,12.42
2019-05-10T17:53:38.297Z,12.21
2019-05-10T17:56:06.705Z,12.29
2019-05-10T17:58:35.101Z,12.28
2019-05-10T18:01:03.516Z,12.25
2019-05-10T18:03:31.900Z,12.05
2019-05-10T18:06:00.290Z,12.10
2019-05-10T18:08:28.697Z,11.97
2019-05-10T18:11:03.637Z,11.82
2019-05-10T18:13:27.287Z,12.02
2019-05-10T18:15:55.675Z,11.90
2019-05-10T18:18:24.078Z,11.60
2019-05-10T18:20:52.495Z,11.12
2019-05-10T18:23:22.873Z,11.27
2019-05-10T18:25:52.419Z,11.19
2019-05-10T18:28:21.899Z,11.26
2019-05-10T18:30:50.346Z,11.35
2019-05-10T18:33:18.772Z,11.36
2019-05-10T18:35:52.104Z,11.10
2019-05-10T18:38:17.355Z,11.31
2019-05-10T18:40:45.778Z,11.43
2019-05-10T18:43:14.233Z,11.24
2019-05-10T18:45:42.713Z,11.05
2019-05-10T18:48:11.116Z,10.91
2019-05-10T18:50:45.083Z,10.95
2019-05-10T18:53:09.711Z,10.97
2019-05-10T18:55:38.111Z,10.87
2019-05-10T18:58:06.600Z,10.82
2019-05-10T19:00:35.036Z,10.91
2019-05-10T19:03:03.465Z,10.95
2019-05-10T19:05:33.155Z,10.90
2019-05-10T19:08:05.452Z,10.84
2019-05-10T19:10:31.890Z,10.79
2019-05-10T19:13:03.831Z,10.71
2019-05-10T19:15:30.453Z,10.51
2019-05-10T19:17:58.896Z,10.51
2019-05-10T19:20:27.331Z,10.38
2019-05-10T19:22:55.826Z,10.41
2019-05-10T19:25:24.343Z,10.10
2019-05-10T19:27:52.765Z,10.17
2019-05-10T19:30:22.491Z,10.15
2019-05-10T19:32:56.157Z,10.06
2019-05-10T19:35:21.206Z,9.79
2019-05-10T19:37:49.640Z,9.73
2019-05-10T19:40:18.132Z,9.73
2019-05-10T19:42:49.434Z,9.75
2019-05-10T19:45:20.803Z,9.86
2019-05-10T19:47:49.828Z,9.97
2019-05-10T19:50:18.433Z,9.97
2019-05-10T19:52:47.914Z,9.65
2019-05-10T19:55:19.428Z,9.53
2019-05-10T19:57:49.629Z,9.60
2019-05-10T20:00:16.890Z,9.75
2019-05-10T20:02:45.299Z,9.82
2019-05-10T20:05:13.878Z,9.74
2019-05-10T20:07:46.039Z,9.73
2019-05-10T20:10:13.065Z,9.76
2019-05-10T20:12:41.455Z,9.81
2019-05-10T20:15:10.129Z,9.88
2019-05-10T20:17:38.898Z,9.86
2019-05-10T20:20:07.941Z,9.81
2019-05-10T20:22:36.624Z,9.83
2019-05-10T20:25:06.424Z,9.76
2019-05-10T20:27:34.962Z,9.65
2019-05-10T20:30:03.529Z,9.68
2019-05-10T20:32:31.950Z,9.83
2019-05-10T20:35:00.378Z,9.84
2019-05-10T20:37:28.766Z,9.80
2019-05-10T20:39:57.201Z,9.50
2019-05-10T20:42:26.217Z,9.52
2019-05-10T20:45:06.904Z,9.65
2019-05-10T20:47:24.768Z,9.58
2019-05-10T20:49:53.178Z,9.69
2019-05-10T20:52:21.641Z,9.68
2019-05-10T20:54:50.042Z,9.72
2019-05-10T20:57:18.528Z,9.62
2019-05-10T20:59:46.929Z,9.68
2019-05-10T21:02:15.363Z,9.75
2019-05-10T21:04:43.764Z,9.69
2019-05-10T21:07:12.270Z,9.52
2019-05-10T21:09:40.712Z,9.03
2019-05-10T21:12:09.139Z,9.03
2019-05-10T21:14:37.532Z,9.19
2019-05-10T21:17:06.090Z,9.31
2019-05-10T21:19:34.509Z,9.39
2019-05-10T21:22:02.904Z,9.53
2019-05-10T21:24:31.549Z,9.61
2019-05-10T21:26:59.965Z,9.67
2019-05-10T21:29:28.385Z,9.74
2019-05-10T21:31:56.817Z,9.83
2019-05-10T21:34:25.215Z,9.88
2019-05-10T21:36:53.713Z,9.88
2019-05-10T21:39:22.133Z,9.92
2019-05-10T21:41:50.561Z,9.95
2019-05-10T21:44:18.993Z,9.98
2019-05-10T21:46:47.409Z,9.97
2019-05-10T21:49:15.838Z,10.03
2019-05-10T21:51:44.251Z,10.04
2019-05-10T21:54:12.700Z,10.04
2019-05-10T21:56:41.163Z,9.89
2019-05-10T21:59:09.555Z,9.62
2019-05-10T22:01:37.991Z,9.58
2019-05-10T22:04:06.414Z,9.56
2019-05-10T22:06:34.852Z,9.60
2019-05-10T22:09:04.501Z,9.64
2019-05-10T22:11:33.052Z,9.68
2019-05-10T22:14:01.465Z,9.71
2019-05-10T22:16:29.949Z,9.68
2019-05-10T22:19:02.280Z,9.72
2019-05-10T22:21:31.324Z,9.74
2019-05-10T22:23:59.797Z,9.88
2019-05-10T22:26:28.280Z,9.92
2019-05-10T22:28:56.696Z,9.88
2019-05-10T22:31:25.133Z,9.97
2019-05-10T22:33:53.548Z,10.00
2019-05-10T22:36:21.987Z,10.02
2019-05-10T22:39:05.814Z,9.91
2019-05-10T22:41:20.547Z,9.81
2019-05-10T22:43:49.295Z,9.81
2019-05-10T22:46:17.762Z,9.76
2019-05-10T22:48:46.162Z,9.87
2019-05-10T22:51:14.572Z,9.96
2019-05-10T22:53:42.978Z,10.02
2019-05-10T22:56:11.553Z,9.93
2019-05-10T22:58:39.973Z,9.81
2019-05-10T23:01:08.665Z,9.50
2019-05-10T23:03:37.091Z,9.49
2019-05-10T23:06:05.579Z,9.38
2019-05-10T23:08:33.990Z,9.33
2019-05-10T23:11:02.658Z,9.32
2019-05-10T23:13:31.092Z,9.29
2019-05-10T23:15:59.488Z,9.14
2019-05-10T23:18:27.945Z,9.21
2019-05-10T23:20:56.764Z,9.30
2019-05-10T23:23:25.167Z,9.21
2019-05-10T23:25:53.581Z,9.20
2019-05-10T23:28:21.989Z,9.28
2019-05-10T23:30:50.422Z,9.26
2019-05-10T23:33:19.564Z,9.28
2019-05-10T23:35:47.979Z,9.27
2019-05-10T23:38:16.412Z,9.28
2019-05-10T23:40:45.522Z,9.08
2019-05-10T23:43:13.952Z,9.30
2019-05-10T23:45:42.430Z,9.22
2019-05-10T23:48:10.874Z,9.36
2019-05-10T23:50:39.278Z,9.46
2019-05-10T23:53:07.743Z,9.34
2019-05-10T23:55:36.176Z,9.18
2019-05-10T23:58:04.763Z,9.04
